Time;durP1;ratioP1;P1;durP2;ratioP2;P2;SDS_P1;SDS_P2;PMS_P1;PMS_P2;Temp;Humidity;BMP_temperature;BMP_pressure;BME280_temperature;BME280_humidity;BME280_pressure;Samples;Min_cycle;Max_cycle;Signal;HPM_P1;HPM_P2
2022/06/27 00:01:21;;;;;;;6.95;3.77;;;;;;;17.25;75.42;99354.41;1708505;82;20947;-80
2022/06/27 00:03:48;;;;;;;8.15;3.42;;;;;;;17.19;76.57;99344.19;1708414;82;21026;-79
2022/06/27 00:06:15;;;;;;;5.65;3.40;;;;;;;17.20;76.65;99347.66;1706602;82;20931;-79
2022/06/27 00:08:41;;;;;;;7.80;3.17;;;;;;;17.17;77.86;99342.55;1709385;82;20990;-80
2022/06/27 00:11:10;;;;;;;8.43;3.08;;;;;;;17.16;78.85;99344.33;1705340;82;20991;-80
2022/06/27 00:13:37;;;;;;;5.70;3.50;;;;;;;17.20;78.16;99351.14;1709279;82;21471;-79
2022/06/27 00:16:04;;;;;;;8.80;3.58;;;;;;;17.20;77.03;99352.92;1704624;82;21006;-79
2022/06/27 00:18:31;;;;;;;5.58;3.30;;;;;;;17.20;77.31;99350.30;1708779;82;21004;-79
2022/06/27 00:20:58;;;;;;;6.72;3.40;;;;;;;17.21;79.29;99347.59;1708399;82;20978;-80
2022/06/27 00:23:25;;;;;;;6.55;3.27;;;;;;;17.21;78.99;99343.66;1704104;84;20965;-79
2022/06/27 00:25:52;;;;;;;5.12;2.83;;;;;;;17.23;78.38;99344.43;1716863;82;21058;-80
2022/06/27 00:28:19;;;;;;;9.08;3.20;;;;;;;17.24;77.98;99346.59;1717013;82;21030;-81
2022/06/27 00:30:45;;;;;;;4.45;2.77;;;;;;;17.25;78.00;99339.95;1702331;82;21071;-80
2022/06/27 00:33:12;;;;;;;4.78;2.67;;;;;;;17.29;77.86;99344.13;1710238;84;20975;-79
2022/06/27 00:35:39;;;;;;;4.85;2.90;;;;;;;17.27;77.11;99337.26;1703962;82;21012;-80
2022/06/27 00:38:06;;;;;;;6.42;3.00;;;;;;;17.24;77.35;99337.39;1703571;83;21023;-80
2022/06/27 00:40:33;;;;;;;5.92;2.98;;;;;;;17.26;77.60;99349.52;1708106;82;20990;-80
2022/06/27 00:43:00;;;;;;;6.95;3.27;;;;;;;17.27;77.22;99338.10;1715443;82;21426;-80
2022/06/27 00:45:27;;;;;;;12.60;3.00;;;;;;;17.28;77.20;99346.83;1689757;84;21063;-80
2022/06/27 00:47:54;;;;;;;4.37;2.70;;;;;;;17.24;77.32;99340.02;1670663;84;21446;-80
2022/06/27 00:50:21;;;;;;;8.55;3.52;;;;;;;17.22;76.85;99341.40;1675899;86;21048;-80
2022/06/27 00:52:49;;;;;;;7.75;3.35;;;;;;;17.15;77.26;99334.77;1661757;84;20995;-81
2022/06/27 00:55:16;;;;;;;5.03;3.12;;;;;;;17.05;78.27;99338.29;1708104;82;20975;-79
2022/06/27 00:57:44;;;;;;;11.05;3.62;;;;;;;16.98;77.85;99343.43;1700565;82;21450;-80
2022/06/27 01:00:12;;;;;;;6.47;3.00;;;;;;;16.93;78.09;99338.87;1709008;83;21014;-79
2022/06/27 01:02:39;;;;;;;6.62;3.22;;;;;;;16.85;78.99;99332.67;1703165;82;20959;-79
2022/06/27 01:05:07;;;;;;;4.97;3.12;;;;;;;16.77;78.48;99333.90;1710214;84;21436;-79
2022/06/27 01:07:34;;;;;;;4.60;2.83;;;;;;;16.68;78.48;99347.00;1706541;82;20966;-79
2022/06/27 01:10:02;;;;;;;6.35;2.70;;;;;;;16.59;78.26;99347.41;1705272;82;20999;-79
2022/06/27 01:12:29;;;;;;;5.12;2.92;;;;;;;16.56;78.07;99348.89;1705989;82;20978;-78
2022/06/27 01:14:56;;;;;;;4.67;2.50;;;;;;;16.47;77.86;99353.63;1733338;82;20999;-79
2022/06/27 01:17:24;;;;;;;5.50;2.77;;;;;;;16.42;78.14;99358.22;1709767;82;21511;-79
2022/06/27 01:19:52;;;;;;;4.75;2.98;;;;;;;16.40;79.07;99356.13;1726278;82;21066;-78
2022/06/27 01:22:19;;;;;;;3.83;2.80;;;;;;;16.34;79.49;99361.66;1710609;82;20936;-79
2022/06/27 01:24:46;;;;;;;5.00;2.80;;;;;;;16.34;79.59;99352.94;1701186;84;20970;-79
2022/06/27 01:27:13;;;;;;;5.50;2.85;;;;;;;16.37;79.52;99360.66;1709303;82;21066;-81
2022/06/27 01:29:40;;;;;;;10.98;3.15;;;;;;;16.36;80.93;99355.03;1661230;84;20995;-80
2022/06/27 01:32:08;;;;;;;6.33;3.00;;;;;;;16.37;79.48;99354.94;1679968;85;21002;-80
2022/06/27 01:34:36;;;;;;;6.05;3.47;;;;;;;16.38;79.74;99360.59;1680263;84;20978;-79
2022/06/27 01:37:05;;;;;;;5.95;3.62;;;;;;;16.40;80.05;99371.88;1679924;84;21043;-79
2022/06/27 01:39:33;;;;;;;7.83;3.72;;;;;;;16.42;79.94;99371.34;1676010;84;20975;-79
2022/06/27 01:42:03;;;;;;;6.72;3.62;;;;;;;16.35;80.40;99364.66;1679311;84;20978;-79
2022/06/27 01:44:33;;;;;;;7.20;4.00;;;;;;;16.36;81.38;99370.78;1641285;84;21027;-79
2022/06/27 01:47:10;;;;;;;7.10;3.33;;;;;;;16.40;81.71;99369.72;1674642;84;20963;-80
2022/06/27 01:49:39;;;;;;;6.17;3.22;;;;;;;16.42;80.85;99373.97;1673243;84;21046;-79
2022/06/27 01:52:08;;;;;;;4.83;3.15;;;;;;;16.44;81.12;99369.50;1679421;84;20984;-79
2022/06/27 01:54:36;;;;;;;10.08;2.80;;;;;;;16.46;80.00;99378.16;1668707;84;20975;-80
2022/06/27 01:57:05;;;;;;;6.95;2.80;;;;;;;16.46;80.35;99381.25;1679958;85;21165;-79
2022/06/27 01:59:33;;;;;;;5.97;2.62;;;;;;;16.44;79.95;99386.56;1678770;85;21046;-80
2022/06/27 02:02:04;;;;;;;6.28;2.72;;;;;;;16.44;80.01;99378.69;1668838;84;21555;-80
2022/06/27 02:04:32;;;;;;;10.03;3.00;;;;;;;16.45;79.34;99379.09;1680532;85;21054;-78
2022/06/27 02:07:01;;;;;;;7.37;2.60;;;;;;;16.45;78.89;99380.41;1645479;85;21003;-79
2022/06/27 02:09:28;;;;;;;4.60;2.92;;;;;;;16.44;79.85;99382.63;1669814;84;21455;-79
2022/06/27 02:11:56;;;;;;;5.22;2.80;;;;;;;16.45;78.97;99383.03;1669757;84;21007;-80
2022/06/27 02:14:26;;;;;;;8.65;3.30;;;;;;;16.44;79.41;99389.19;1698662;84;21011;-79
2022/06/27 02:16:53;;;;;;;6.25;2.70;;;;;;;16.47;79.49;99391.69;1674159;84;21515;-78
2022/06/27 02:19:20;;;;;;;9.75;3.22;;;;;;;16.50;79.50;99387.59;1625739;86;20998;-79
2022/06/27 02:21:48;;;;;;;7.87;2.98;;;;;;;16.53;79.74;99388.38;1661364;84;21066;-79
2022/06/27 02:24:15;;;;;;;4.95;2.67;;;;;;;16.53;79.50;99383.97;1663304;85;20983;-79
2022/06/27 02:26:44;;;;;;;10.88;3.35;;;;;;;16.51;79.30;99375.31;1678780;85;21546;-79
2022/06/27 02:29:11;;;;;;;6.28;3.55;;;;;;;16.49;79.10;99383.28;1680520;84;20979;-79
2022/06/27 02:31:50;;;;;;;9.08;3.27;;;;;;;16.46;78.92;99383.87;1699543;82;21050;-80
2022/06/27 02:34:18;;;;;;;10.08;3.60;;;;;;;16.42;78.90;99377.91;1695674;82;21023;-79
2022/06/27 02:36:49;;;;;;;8.53;3.05;;;;;;;16.40;79.04;99384.99;1687419;83;21345;-79
2022/06/27 02:39:21;;;;;;;5.60;3.30;;;;;;;16.37;78.92;99385.58;1699117;84;20983;-79
2022/06/27 02:41:56;;;;;;;10.03;3.20;;;;;;;16.31;79.10;99388.02;1699461;82;21557;-78
2022/06/27 02:44:26;;;;;;;8.20;3.22;;;;;;;16.22;78.16;99391.91;1704772;82;21031;-79
2022/06/27 02:46:53;;;;;;;7.08;3.30;;;;;;;16.16;78.66;99397.42;1721523;82;20982;-80
2022/06/27 02:49:21;;;;;;;8.25;3.10;;;;;;;16.14;77.72;99397.09;1699047;82;20987;-79
2022/06/27 02:52:02;;;;;;;7.30;3.37;;;;;;;16.12;78.81;99394.53;1700999;83;21023;-78
2022/06/27 02:54:43;;;;;;;8.88;3.27;;;;;;;16.13;79.98;99396.22;1694714;82;21511;-78
2022/06/27 02:57:34;;;;;;;11.03;3.20;;;;;;;16.16;79.35;99397.89;1698192;82;21022;-79
2022/06/27 03:00:07;;;;;;;7.00;3.62;;;;;;;16.18;79.22;99393.42;1698479;82;21124;-79
2022/06/27 03:02:38;;;;;;;6.87;3.20;;;;;;;16.20;80.66;99398.14;1699453;82;20978;-79
2022/06/27 03:05:11;;;;;;;14.25;4.72;;;;;;;16.24;80.10;99389.22;1699188;84;21981;-79
2022/06/27 03:07:41;;;;;;;7.20;3.77;;;;;;;16.27;80.37;99392.56;1700349;82;20959;-80
2022/06/27 03:10:11;;;;;;;7.72;3.83;;;;;;;16.31;80.34;99399.81;1688299;82;21053;-79
2022/06/27 03:12:40;;;;;;;9.18;3.65;;;;;;;16.34;80.66;99397.08;1720808;82;20991;-79
2022/06/27 03:15:09;;;;;;;6.45;3.70;;;;;;;16.40;80.45;99400.73;1694214;82;20975;-80
2022/06/27 03:17:36;;;;;;;7.70;3.70;;;;;;;16.45;80.24;99401.84;1702100;83;20979;-79
2022/06/27 03:20:21;;;;;;;5.42;3.72;;;;;;;16.49;80.51;99403.41;1689220;83;21051;-79
2022/06/27 03:22:53;;;;;;;7.05;3.87;;;;;;;16.53;79.26;99404.97;1677980;84;20976;-80
2022/06/27 03:25:20;;;;;;;5.97;3.85;;;;;;;16.54;79.82;99413.72;1699845;83;21015;-79
2022/06/27 03:27:46;;;;;;;8.93;3.70;;;;;;;16.58;79.52;99412.66;1701514;82;21063;-80
2022/06/27 03:30:13;;;;;;;8.65;3.80;;;;;;;16.59;80.09;99412.59;1707689;82;21573;-80
2022/06/27 03:32:40;;;;;;;7.17;3.65;;;;;;;16.63;80.23;99414.16;1696778;82;20975;-79
2022/06/27 03:35:09;;;;;;;4.92;3.30;;;;;;;16.65;79.62;99411.45;1699455;83;20999;-81
2022/06/27 03:37:36;;;;;;;8.30;3.90;;;;;;;16.69;80.05;99416.51;1664230;82;21002;-79
2022/06/27 03:40:04;;;;;;;6.65;3.90;;;;;;;16.77;80.67;99412.66;1691117;82;21075;-79
2022/06/27 03:42:32;;;;;;;5.12;3.70;;;;;;;16.77;80.43;99411.35;1700749;82;21542;-79
2022/06/27 03:44:59;;;;;;;7.97;4.55;;;;;;;16.80;79.90;99406.82;1701783;82;20924;-80
2022/06/27 03:47:26;;;;;;;10.45;4.83;;;;;;;16.81;79.29;99398.47;1701812;84;21007;-80
2022/06/27 03:50:04;;;;;;;10.08;4.42;;;;;;;16.79;80.20;99397.69;1674726;82;21486;-80
2022/06/27 03:52:35;;;;;;;12.10;4.40;;;;;;;16.78;78.67;99406.51;1697416;82;20940;-80
2022/06/27 03:55:03;;;;;;;13.72;4.80;;;;;;;16.73;80.76;99409.79;1704256;82;21032;-79
2022/06/27 03:57:30;;;;;;;9.93;4.35;;;;;;;16.73;80.45;99400.59;1695922;82;20923;-79
2022/06/27 03:59:57;;;;;;;8.10;4.28;;;;;;;16.73;80.37;99408.01;1702776;82;20960;-79
2022/06/27 04:02:27;;;;;;;5.90;3.55;;;;;;;16.75;79.03;99410.57;1696580;83;21015;-79
2022/06/27 04:04:55;;;;;;;7.75;3.75;;;;;;;16.77;80.07;99417.48;1728151;82;21035;-80
2022/06/27 04:07:22;;;;;;;11.53;3.92;;;;;;;16.80;78.90;99421.73;1692361;82;20955;-79
2022/06/27 04:09:49;;;;;;;8.25;4.37;;;;;;;16.82;79.71;99418.60;1694021;82;21541;-80
2022/06/27 04:12:16;;;;;;;14.87;3.80;;;;;;;16.89;79.09;99417.38;1697380;83;21467;-80
2022/06/27 04:15:02;;;;;;;7.33;4.15;;;;;;;16.90;80.05;99416.01;1710319;82;20969;-80
2022/06/27 04:17:40;;;;;;;9.25;4.05;;;;;;;16.94;79.78;99419.34;1624029;87;21019;-80
2022/06/27 04:20:27;;;;;;;7.05;3.65;;;;;;;17.01;79.67;99420.78;1592008;88;21034;-80
2022/06/27 04:22:56;;;;;;;9.30;3.50;;;;;;;17.08;79.67;99425.28;1609530;88;21007;-79
2022/06/27 04:25:42;;;;;;;4.90;3.30;;;;;;;17.18;79.48;99430.95;1575222;89;21084;-79
2022/06/27 04:28:11;;;;;;;6.70;3.37;;;;;;;17.28;79.14;99430.91;1577009;89;21673;-79
2022/06/27 04:30:39;;;;;;;6.75;3.85;;;;;;;17.36;78.91;99435.34;1610634;84;21003;-79
2022/06/27 04:33:07;;;;;;;12.33;7.85;;;;;;;17.43;79.22;99433.28;1706451;82;21034;-80
2022/06/27 04:35:36;;;;;;;7.80;3.83;;;;;;;17.48;78.60;99426.02;1701536;84;21486;-80
2022/06/27 04:38:04;;;;;;;12.53;5.70;;;;;;;17.54;78.70;99423.56;1682093;84;21557;-80
2022/06/27 04:40:38;;;;;;;6.42;4.15;;;;;;;17.57;78.76;99421.64;1698931;82;21745;-80
2022/06/27 04:43:06;;;;;;;8.20;4.20;;;;;;;17.63;78.42;99433.64;1709247;82;21107;-80
2022/06/27 04:45:34;;;;;;;7.62;3.70;;;;;;;17.67;78.05;99428.14;1702508;84;20978;-80
2022/06/27 04:48:06;;;;;;;5.05;3.08;;;;;;;17.70;77.66;99430.61;1708980;82;21022;-80
2022/06/27 04:50:33;;;;;;;8.60;4.15;;;;;;;17.75;77.65;99430.88;1705054;84;21026;-81
2022/06/27 04:53:01;;;;;;;6.78;3.02;;;;;;;17.79;77.03;99437.68;1712220;82;20975;-80
2022/06/27 04:55:28;;;;;;;6.90;3.37;;;;;;;17.81;77.19;99437.14;1709301;84;21439;-80
2022/06/27 04:57:55;;;;;;;5.05;3.20;;;;;;;17.85;76.32;99435.63;1709644;82;20963;-79
2022/06/27 05:00:22;;;;;;;7.97;2.83;;;;;;;17.84;76.43;99438.31;1695723;82;21499;-80
2022/06/27 05:03:08;;;;;;;5.75;3.40;;;;;;;17.89;76.44;99437.64;1710679;82;21062;-79
2022/06/27 05:05:37;;;;;;;8.43;3.25;;;;;;;17.92;76.66;99438.78;1700207;82;20987;-80
2022/06/27 05:08:06;;;;;;;5.22;3.30;;;;;;;18.00;76.61;99447.14;1709878;84;21471;-80
2022/06/27 05:10:34;;;;;;;5.42;3.05;;;;;;;18.05;76.54;99438.56;1678153;84;21077;-80
2022/06/27 05:13:02;;;;;;;4.83;2.87;;;;;;;18.11;76.29;99441.83;1702818;84;21125;-79
2022/06/27 05:15:29;;;;;;;8.18;4.03;;;;;;;18.19;76.15;99444.92;1704161;82;20923;-79
2022/06/27 05:17:57;;;;;;;4.95;3.22;;;;;;;18.28;76.18;99446.63;1709993;82;21531;-79
2022/06/27 05:20:25;;;;;;;10.38;3.60;;;;;;;18.40;76.06;99443.83;1709006;82;20975;-80
2022/06/27 05:22:52;;;;;;;6.37;3.45;;;;;;;18.50;75.73;99452.07;1706838;82;21013;-80
2022/06/27 05:25:19;;;;;;;7.05;3.70;;;;;;;18.56;75.52;99443.88;1705014;82;21490;-80
2022/06/27 05:27:46;;;;;;;7.47;3.30;;;;;;;18.65;75.22;99455.70;1689922;82;21049;-80
2022/06/27 05:30:15;;;;;;;7.67;3.52;;;;;;;18.72;74.52;99449.19;1706558;82;20986;-78
2022/06/27 05:32:42;;;;;;;6.45;3.35;;;;;;;18.79;74.26;99462.43;1700234;82;20944;-79
2022/06/27 05:35:10;;;;;;;8.28;3.60;;;;;;;18.86;73.84;99465.14;1699966;83;20971;-80
2022/06/27 05:37:38;;;;;;;7.15;4.10;;;;;;;18.95;73.21;99474.80;1698117;82;21487;-79
2022/06/27 05:40:09;;;;;;;6.03;3.85;;;;;;;18.96;73.28;99467.26;1701564;82;20959;-78
2022/06/27 05:42:36;;;;;;;10.95;4.20;;;;;;;18.93;73.37;99470.07;1699122;82;21035;-80
2022/06/27 05:45:04;;;;;;;5.80;4.10;;;;;;;18.93;73.76;99474.87;1726333;82;20942;-80
2022/06/27 05:47:33;;;;;;;10.90;4.35;;;;;;;18.93;74.02;99480.14;1699771;82;20987;-78
2022/06/27 05:50:08;;;;;;;8.40;3.90;;;;;;;18.99;74.23;99478.48;1683277;82;21105;-78
2022/06/27 05:52:39;;;;;;;6.67;3.95;;;;;;;19.08;74.30;99474.53;1694989;83;20975;-79
2022/06/27 05:55:08;;;;;;;9.13;4.00;;;;;;;19.17;73.93;99484.55;1698945;84;21022;-79
2022/06/27 05:57:36;;;;;;;7.30;4.53;;;;;;;19.23;74.00;99488.16;1694050;82;21038;-80
2022/06/27 06:00:05;;;;;;;8.48;4.70;;;;;;;19.34;73.82;99488.04;1687530;82;20990;-79
2022/06/27 06:02:34;;;;;;;9.43;6.00;;;;;;;19.45;73.77;99487.83;1703104;83;21027;-80
2022/06/27 06:05:01;;;;;;;8.33;4.62;;;;;;;19.57;73.27;99490.26;1703684;82;21004;-81
2022/06/27 06:07:29;;;;;;;7.08;3.92;;;;;;;19.61;73.12;99493.10;1693852;82;21007;-75
2022/06/27 06:09:57;;;;;;;7.95;4.67;;;;;;;19.69;72.79;99492.67;1698910;82;20981;-76
2022/06/27 06:12:26;;;;;;;8.10;4.75;;;;;;;19.76;72.76;99494.08;1689781;83;21899;-77
2022/06/27 06:14:53;;;;;;;7.28;4.30;;;;;;;19.80;72.44;99495.59;1698340;83;20987;-77
2022/06/27 06:17:21;;;;;;;8.05;5.00;;;;;;;19.86;72.33;99491.77;1694914;83;21862;-76
2022/06/27 06:19:50;;;;;;;10.05;5.25;;;;;;;19.92;72.20;99491.41;1696099;83;20954;-76
2022/06/27 06:22:17;;;;;;;7.92;4.22;;;;;;;20.00;71.92;99489.18;1698666;83;21005;-76
2022/06/27 06:24:47;;;;;;;6.47;4.03;;;;;;;20.14;71.78;99488.86;1691832;83;21551;-76
2022/06/27 06:27:13;;;;;;;7.92;3.90;;;;;;;20.18;71.87;99491.70;1698396;83;21173;-75
2022/06/27 06:29:42;;;;;;;6.95;3.83;;;;;;;20.24;72.03;99488.22;1693568;83;21028;-75
2022/06/27 06:32:10;;;;;;;7.80;3.83;;;;;;;20.36;71.77;99491.08;1687182;83;20978;-77
2022/06/27 06:34:37;;;;;;;9.78;4.10;;;;;;;20.46;71.73;99486.47;1688500;83;21060;-77
2022/06/27 06:37:06;;;;;;;7.55;4.25;;;;;;;20.53;71.38;99491.38;1691406;83;21484;-76
2022/06/27 06:39:33;;;;;;;9.55;4.20;;;;;;;20.59;71.27;99487.08;1687180;83;21043;-77
2022/06/27 06:42:00;;;;;;;10.40;6.37;;;;;;;20.69;71.61;99487.38;1686732;83;21034;-76
2022/06/27 06:44:29;;;;;;;7.20;4.33;;;;;;;20.82;70.87;99484.38;1687867;83;21444;-76
2022/06/27 06:46:58;;;;;;;5.92;3.83;;;;;;;20.95;71.07;99484.46;1686196;83;20962;-76
2022/06/27 06:49:32;;;;;;;7.62;3.77;;;;;;;21.05;70.08;99490.91;1656406;85;21600;-76
2022/06/27 06:51:59;;;;;;;7.92;3.75;;;;;;;21.09;69.72;99491.09;1644789;85;21093;-76
2022/06/27 06:54:26;;;;;;;5.05;3.42;;;;;;;21.13;69.54;99495.23;1649509;85;21108;-76
2022/06/27 06:56:53;;;;;;;6.17;3.58;;;;;;;21.20;69.01;99488.59;1698842;83;21470;-75
2022/06/27 06:59:20;;;;;;;6.40;3.77;;;;;;;21.22;68.91;99492.47;1695385;83;21051;-76
2022/06/27 07:01:47;;;;;;;7.37;4.30;;;;;;;21.25;68.62;99491.81;1701018;83;21455;-76
2022/06/27 07:04:15;;;;;;;5.47;3.75;;;;;;;21.36;68.41;99485.00;1697346;83;21081;-77
2022/06/27 07:06:42;;;;;;;6.90;3.55;;;;;;;21.38;68.21;99485.75;1660094;85;20938;-75
2022/06/27 07:09:10;;;;;;;6.78;3.62;;;;;;;21.41;67.90;99490.37;1687779;83;21147;-76
2022/06/27 07:11:39;;;;;;;8.88;3.65;;;;;;;21.47;67.23;99482.55;1664248;85;20989;-77
2022/06/27 07:14:06;;;;;;;6.10;3.47;;;;;;;21.53;67.30;99484.80;1697362;83;20993;-77
2022/06/27 07:16:33;;;;;;;8.88;3.95;;;;;;;21.59;67.12;99480.44;1695726;83;20968;-77
2022/06/27 07:19:00;;;;;;;6.35;3.47;;;;;;;21.66;66.50;99487.50;1693740;83;20970;-76
2022/06/27 07:21:31;;;;;;;8.18;3.20;;;;;;;21.64;66.89;99482.78;1696428;83;21472;-75
2022/06/27 07:24:00;;;;;;;5.78;3.00;;;;;;;21.71;66.99;99481.45;1697378;83;21021;-77
2022/06/27 07:26:27;;;;;;;6.08;2.62;;;;;;;21.83;66.50;99479.31;1692069;83;20955;-76
2022/06/27 07:28:55;;;;;;;5.78;3.27;;;;;;;21.95;66.15;99476.34;1694992;83;21053;-79
2022/06/27 07:31:22;;;;;;;7.62;3.25;;;;;;;22.04;66.15;99473.09;1699571;82;21486;-79
2022/06/27 07:33:54;;;;;;;6.87;3.90;;;;;;;22.15;65.20;99480.30;1667115;84;21003;-80
2022/06/27 07:36:25;;;;;;;6.92;3.20;;;;;;;22.19;64.12;99473.01;1696330;82;20963;-79
2022/06/27 07:38:52;;;;;;;4.90;3.15;;;;;;;22.27;62.74;99476.02;1695886;82;21071;-79
2022/06/27 07:41:20;;;;;;;5.97;3.10;;;;;;;22.30;63.57;99473.14;1702492;82;21003;-79
2022/06/27 07:43:49;;;;;;;8.35;3.45;;;;;;;22.36;62.97;99470.11;1691153;83;21028;-80
2022/06/27 07:46:17;;;;;;;8.53;3.10;;;;;;;22.41;62.59;99466.66;1692861;83;21015;-79
2022/06/27 07:48:46;;;;;;;5.50;2.77;;;;;;;22.48;62.53;99467.55;1693929;83;21002;-80
2022/06/27 07:51:16;;;;;;;6.37;3.47;;;;;;;22.58;62.77;99469.94;1692435;83;20943;-80
2022/06/27 07:53:47;;;;;;;7.72;2.90;;;;;;;22.70;61.31;99472.22;1692758;83;21585;-78
2022/06/27 07:56:16;;;;;;;8.20;3.17;;;;;;;22.68;60.84;99463.08;1691698;83;21457;-79
2022/06/27 07:58:43;;;;;;;5.92;3.00;;;;;;;22.71;60.75;99464.17;1696541;83;21058;-78
2022/06/27 08:01:14;;;;;;;12.00;3.87;;;;;;;22.79;60.73;99464.48;1690135;83;20944;-80
2022/06/27 08:03:44;;;;;;;7.90;3.77;;;;;;;22.81;60.30;99475.83;1687746;83;21518;-81
2022/06/27 08:06:26;;;;;;;5.45;3.30;;;;;;;22.91;60.91;99467.23;1691744;83;20947;-79
2022/06/27 08:09:01;;;;;;;4.50;3.27;;;;;;;22.98;60.59;99472.48;1680735;84;21063;-80
2022/06/27 08:11:32;;;;;;;5.70;3.50;;;;;;;23.03;60.40;99471.70;1661939;84;21702;-81
2022/06/27 08:14:03;;;;;;;9.33;3.62;;;;;;;23.10;60.60;99472.97;1661951;84;21044;-81
2022/06/27 08:16:31;;;;;;;6.95;3.50;;;;;;;23.20;60.60;99470.03;1662657;84;21073;-80
2022/06/27 08:19:00;;;;;;;5.05;3.45;;;;;;;23.28;60.61;99477.89;1676730;84;21102;-81
2022/06/27 08:21:27;;;;;;;8.48;3.72;;;;;;;23.33;59.87;99470.47;1645549;86;21524;-82
2022/06/27 08:23:59;;;;;;;6.83;3.50;;;;;;;23.39;59.66;99466.05;1645079;86;21038;-80
2022/06/27 08:26:27;;;;;;;5.45;3.45;;;;;;;23.49;59.65;99464.41;1666521;84;21052;-84
2022/06/27 08:28:56;;;;;;;6.08;3.27;;;;;;;23.60;59.45;99464.48;1672374;84;21037;-85
2022/06/27 08:31:23;;;;;;;6.60;3.35;;;;;;;23.72;58.72;99463.23;1670609;84;20992;-85
2022/06/27 08:33:51;;;;;;;8.90;3.35;;;;;;;23.82;58.81;99470.91;1677013;84;21037;-89
2022/06/27 08:36:19;;;;;;;6.10;3.37;;;;;;;23.96;58.44;99468.55;1680641;84;21000;-88
2022/06/27 08:38:50;;;;;;;5.35;3.33;;;;;;;24.10;59.05;99459.55;1643926;86;20997;-88
2022/06/27 08:41:16;;;;;;;5.00;3.08;;;;;;;24.24;58.56;99463.81;1681555;84;21024;-89
2022/06/27 08:43:43;;;;;;;5.85;3.35;;;;;;;24.32;58.28;99463.59;1666650;86;20997;-89
2022/06/27 08:46:16;;;;;;;5.95;3.37;;;;;;;24.42;57.82;99465.90;1668079;84;20995;-87
2022/06/27 08:48:45;;;;;;;4.72;3.30;;;;;;;24.51;57.63;99459.54;1667668;84;21031;-87
2022/06/27 08:51:13;;;;;;;6.08;3.30;;;;;;;24.59;57.31;99458.46;1653048;84;21552;-89
2022/06/27 08:53:41;;;;;;;6.00;3.22;;;;;;;24.59;56.93;99454.02;1667303;84;21025;-89
2022/06/27 08:56:12;;;;;;;7.70;3.25;;;;;;;24.68;57.29;99448.45;1671699;84;21013;-89
2022/06/27 08:58:39;;;;;;;7.20;3.00;;;;;;;24.79;56.51;99444.97;1658835;86;21003;-87
2022/06/27 09:01:07;;;;;;;6.65;2.85;;;;;;;24.90;56.20;99450.76;1677184;84;21048;-87
2022/06/27 09:03:34;;;;;;;4.35;2.65;;;;;;;25.00;56.21;99451.22;1663987;86;20994;-86
2022/06/27 09:06:04;;;;;;;7.25;3.30;;;;;;;25.13;55.26;99451.60;1668279;84;21524;-87
2022/06/27 09:08:36;;;;;;;4.95;2.75;;;;;;;25.24;55.82;99448.09;1670780;84;20997;-85
2022/06/27 09:11:04;;;;;;;8.90;3.17;;;;;;;25.33;54.31;99436.73;1675921;84;21044;-88
2022/06/27 09:13:31;;;;;;;7.80;2.92;;;;;;;25.36;53.50;99443.11;1676911;84;21791;-88
2022/06/27 09:16:01;;;;;;;4.10;2.45;;;;;;;25.39;52.85;99432.23;1672490;84;21027;-87
2022/06/27 09:18:35;;;;;;;4.28;2.75;;;;;;;25.44;53.95;99433.17;1688365;84;21001;-86
2022/06/27 09:21:11;;;;;;;5.20;2.87;;;;;;;25.51;53.52;99435.22;1706770;83;20956;-88
2022/06/27 09:23:49;;;;;;;11.68;3.40;;;;;;;25.54;52.93;99427.45;1689425;83;21014;-89
2022/06/27 09:26:31;;;;;;;5.45;2.50;;;;;;;25.55;52.66;99424.67;1695710;83;21053;-89
2022/06/27 09:29:11;;;;;;;7.87;2.97;;;;;;;25.70;53.52;99421.22;1700957;83;20955;-90
2022/06/27 09:31:46;;;;;;;5.65;2.77;;;;;;;25.88;52.65;99415.34;1698309;83;21030;-89
2022/06/27 09:34:25;;;;;;;8.20;3.00;;;;;;;25.90;51.18;99422.71;1694416;83;21079;-89
2022/06/27 09:36:56;;;;;;;7.00;2.90;;;;;;;25.93;51.91;99418.51;1688347;81;21115;-88
2022/06/27 09:39:35;;;;;;;5.00;2.67;;;;;;;26.02;51.34;99410.22;1701088;81;20995;-88
2022/06/27 09:42:06;;;;;;;4.03;2.60;;;;;;;26.08;50.54;99417.69;1676573;85;21020;-90
2022/06/27 09:44:38;;;;;;;4.45;2.80;;;;;;;26.19;50.28;99413.64;1689098;83;21567;-86
2022/06/27 09:47:18;;;;;;;3.77;2.60;;;;;;;26.22;50.87;99411.19;1670944;84;21138;-87
2022/06/27 09:49:49;;;;;;;6.03;3.00;;;;;;;26.30;50.33;99407.37;1708925;82;20996;-89
2022/06/27 09:52:20;;;;;;;5.37;2.40;;;;;;;26.33;50.47;99411.12;1728684;82;21020;-90
2022/06/27 09:54:48;;;;;;;4.72;2.80;;;;;;;26.41;50.02;99403.31;1731045;82;20929;-90
2022/06/27 09:57:16;;;;;;;4.50;2.55;;;;;;;26.43;49.01;99404.52;1728742;83;21036;-88
2022/06/27 09:59:46;;;;;;;6.47;3.12;;;;;;;26.51;49.71;99403.36;1729135;82;21022;-88
2022/06/27 10:02:16;;;;;;;5.47;2.30;;;;;;;26.65;49.23;99407.03;1737295;81;21002;-87
2022/06/27 10:04:45;;;;;;;5.20;2.47;;;;;;;26.76;48.86;99395.45;1737971;81;20944;-86
2022/06/27 10:07:12;;;;;;;4.22;2.70;;;;;;;26.82;48.39;99403.38;1732370;81;20952;-85
2022/06/27 10:09:42;;;;;;;5.70;2.50;;;;;;;26.88;47.00;99394.36;1729520;81;20988;-84
2022/06/27 10:12:31;;;;;;;4.15;2.15;;;;;;;26.84;46.84;99399.61;1722087;83;21039;-82
2022/06/27 10:15:15;;;;;;;3.50;2.02;;;;;;;26.85;45.97;99399.11;1728902;81;20978;-83
2022/06/27 10:17:52;;;;;;;5.62;2.00;;;;;;;26.95;47.12;99383.98;1726335;81;21020;-86
2022/06/27 10:20:39;;;;;;;5.58;2.50;;;;;;;27.08;47.21;99380.58;1727871;81;20992;-86
2022/06/27 10:23:26;;;;;;;4.65;2.25;;;;;;;27.23;45.78;99382.84;1733340;82;20983;-83
2022/06/27 10:25:56;;;;;;;3.72;2.27;;;;;;;27.40;46.71;99379.53;1727545;81;20968;-84
2022/06/27 10:28:23;;;;;;;4.12;2.30;;;;;;;27.45;46.22;99377.77;1724224;81;21531;-85
2022/06/27 10:30:58;;;;;;;5.50;2.30;;;;;;;27.50;45.82;99370.20;1701649;83;21002;-82
2022/06/27 10:33:30;;;;;;;3.90;2.10;;;;;;;27.56;44.57;99371.80;1667526;84;21051;-85
2022/06/27 10:36:10;;;;;;;4.90;2.10;;;;;;;27.66;44.67;99370.97;1684152;84;20989;-87
2022/06/27 10:38:45;;;;;;;3.92;2.30;;;;;;;27.64;44.49;99363.59;1676024;85;21548;-84
2022/06/27 10:41:23;;;;;;;3.55;2.05;;;;;;;27.69;44.24;99370.67;1674867;84;20988;-84
2022/06/27 10:43:53;;;;;;;5.03;2.10;;;;;;;27.78;44.13;99361.82;1672940;84;21004;-89
2022/06/27 10:46:25;;;;;;;5.12;2.10;;;;;;;27.84;43.85;99363.92;1678103;85;21004;-85
2022/06/27 10:48:55;;;;;;;4.58;2.20;;;;;;;27.91;44.08;99360.20;1669667;84;21043;-86
2022/06/27 10:51:30;;;;;;;3.92;2.02;;;;;;;28.01;44.47;99355.68;1670739;84;21035;-85
2022/06/27 10:54:08;;;;;;;3.67;2.08;;;;;;;28.20;44.49;99356.64;1680116;85;20976;-84
2022/06/27 10:56:39;;;;;;;5.55;1.98;;;;;;;28.39;42.34;99351.70;1676109;84;20960;-84
2022/06/27 10:59:16;;;;;;;5.50;2.15;;;;;;;28.58;43.64;99344.15;1710914;83;20977;-85
2022/06/27 11:01:57;;;;;;;5.10;2.08;;;;;;;28.75;43.55;99342.86;1702497;83;21035;-85
2022/06/27 11:04:38;;;;;;;6.45;1.75;;;;;;;28.94;42.38;99343.23;1694586;83;21952;-85
2022/06/27 11:07:07;;;;;;;4.85;1.90;;;;;;;29.06;41.93;99338.50;1704852;83;21047;-85
2022/06/27 11:09:46;;;;;;;5.58;2.10;;;;;;;29.17;41.29;99339.30;1705775;83;20988;-87
2022/06/27 11:12:13;;;;;;;5.12;2.42;;;;;;;29.26;40.79;99331.71;1666414;85;21095;-85
2022/06/27 11:14:58;;;;;;;4.33;1.90;;;;;;;29.24;40.43;99326.50;1667694;85;21047;-86
2022/06/27 11:17:39;;;;;;;5.20;1.98;;;;;;;29.27;40.36;99328.89;1672217;84;21170;-86
2022/06/27 11:20:20;;;;;;;4.33;1.98;;;;;;;29.36;40.63;99328.45;1673942;84;20989;-85
2022/06/27 11:22:52;;;;;;;3.67;1.80;;;;;;;29.49;40.00;99330.25;1641885;86;20996;-86
2022/06/27 11:25:20;;;;;;;4.45;1.72;;;;;;;29.58;39.85;99341.88;1642004;86;20977;-87
2022/06/27 11:33:34;;;;;;;3.92;1.72;;;;;;;29.65;38.91;99328.72;1671482;84;21057;-86
2022/06/27 11:36:01;;;;;;;5.22;2.02;;;;;;;29.58;38.83;99327.64;1676586;85;21020;-87
2022/06/27 11:38:42;;;;;;;4.00;1.90;;;;;;;29.69;37.97;99324.73;1665409;84;21563;-85
2022/06/27 11:41:13;;;;;;;3.10;1.77;;;;;;;29.71;37.80;99324.94;1668521;84;21031;-86
2022/06/27 11:44:06;;;;;;;3.00;1.80;;;;;;;29.66;37.59;99314.31;1669383;85;21005;-85
2022/06/27 11:46:45;;;;;;;4.92;1.82;;;;;;;29.76;37.15;99312.91;1700525;82;21008;-85
2022/06/27 11:49:14;;;;;;;2.83;1.57;;;;;;;29.74;37.35;99308.56;1730362;81;21908;-86
2022/06/27 11:51:47;;;;;;;4.35;1.70;;;;;;;29.84;37.18;99306.27;1729740;81;21043;-85